Time;durP1;ratioP1;P1;durP2;ratioP2;P2;SDS_P1;SDS_P2;PMS_P1;PMS_P2;Temp;Humidity;BMP_temperature;BMP_pressure;BME280_temperature;BME280_humidity;BME280_pressure;Samples;Min_cycle;Max_cycle;Signal;HPM_P1;HPM_P2
2022/02/27 00:01:35;;;;;;;;;74.00;58.50;;;;;-1.69;100.00;102610.53;3725327;38;20225;-58
2022/02/27 00:04:08;;;;;;;;;67.75;54.50;;;;;-1.69;100.00;102608.75;3726496;38;20470;-58
2022/02/27 00:06:36;;;;;;;;;73.00;56.50;;;;;-1.65;100.00;102613.94;3725629;37;20638;-59
2022/02/27 00:09:05;;;;;;;;;73.75;57.00;;;;;-1.49;100.00;102615.09;3725588;38;20448;-59
2022/02/27 00:11:36;;;;;;;;;72.75;57.00;;;;;-1.34;100.00;102614.53;3725379;37;20516;-59
2022/02/27 00:14:05;;;;;;;;;73.50;57.00;;;;;-1.26;100.00;102620.44;3725362;37;20282;-57
2022/02/27 00:16:34;;;;;;;;;64.25;52.00;;;;;-1.17;100.00;102617.44;3725761;38;20383;-58
2022/02/27 00:19:04;;;;;;;;;71.75;54.75;;;;;-1.08;100.00;102610.91;3725247;37;20422;-59
2022/02/27 00:21:35;;;;;;;;;72.75;56.75;;;;;-1.00;100.00;102619.44;3725288;37;20211;-59
2022/02/27 00:24:04;;;;;;;;;58.00;48.25;;;;;-0.89;100.00;102619.87;3725495;37;20175;-61
2022/02/27 00:26:33;;;;;;;;;54.00;44.75;;;;;-0.82;100.00;102616.06;3725502;37;20180;-57
2022/02/27 00:29:01;;;;;;;;;42.75;36.25;;;;;-0.71;100.00;102612.97;3725750;37;20497;-59
2022/02/27 00:31:30;;;;;;;;;55.75;46.00;;;;;-0.60;100.00;102605.44;3725781;38;20290;-58
2022/02/27 00:33:58;;;;;;;;;51.00;42.00;;;;;-0.50;100.00;102609.44;3725395;38;20278;-58
2022/02/27 00:36:27;;;;;;;;;28.00;27.00;;;;;-0.40;100.00;102613.47;3725775;37;20165;-60
2022/02/27 00:38:57;;;;;;;;;43.75;39.50;;;;;-0.35;100.00;102602.63;3725559;37;20154;-58
2022/02/27 00:41:27;;;;;;;;;31.75;29.75;;;;;-0.21;100.00;102602.94;3725885;37;20483;-61
2022/02/27 00:43:59;;;;;;;;;29.25;27.25;;;;;-0.05;100.00;102613.78;3725319;38;20658;-57
2022/02/27 00:46:27;;;;;;;;;21.25;20.25;;;;;-0.03;100.00;102606.63;3725791;37;20234;-57
2022/02/27 00:48:59;;;;;;;;;24.25;23.50;;;;;0.08;100.00;102612.31;3725639;38;20123;-57
2022/02/27 00:51:28;;;;;;;;;27.50;25.00;;;;;0.16;100.00;102609.31;3725276;37;20253;-60
2022/02/27 00:53:55;;;;;;;;;30.50;27.50;;;;;0.15;100.00;102616.44;3725024;37;20393;-57
2022/02/27 00:56:25;;;;;;;;;25.00;22.25;;;;;0.21;100.00;102613.53;3725597;38;20530;-57
2022/02/27 00:58:55;;;;;;;;;26.75;21.00;;;;;0.21;100.00;102617.97;3725365;37;20128;-59
2022/02/27 01:01:24;;;;;;;;;22.75;22.75;;;;;0.23;100.00;102619.66;3725168;38;20128;-57
2022/02/27 01:03:52;;;;;;;;;29.50;23.25;;;;;0.29;100.00;102618.50;3725375;38;20070;-57
2022/02/27 01:06:19;;;;;;;;;26.00;22.50;;;;;0.19;100.00;102612.72;3725811;37;20171;-58
2022/02/27 01:08:49;;;;;;;;;22.75;20.00;;;;;0.26;100.00;102619.50;3725702;37;20193;-57
2022/02/27 01:11:18;;;;;;;;;25.75;24.50;;;;;0.17;100.00;102598.59;3725502;37;20080;-57
2022/02/27 01:13:46;;;;;;;;;18.25;16.25;;;;;0.16;100.00;102610.19;3725579;37;20220;-59
2022/02/27 01:16:14;;;;;;;;;21.25;21.00;;;;;0.17;100.00;102609.25;3725623;37;20424;-60
2022/02/27 01:18:44;;;;;;;;;25.25;23.25;;;;;0.12;100.00;102611.25;3725519;37;20491;-55
2022/02/27 01:21:16;;;;;;;;;25.00;23.50;;;;;0.09;100.00;102613.19;3724260;37;32689;-60
2022/02/27 01:23:45;;;;;;;;;25.25;24.75;;;;;0.08;100.00;102611.44;3725539;37;20484;-58
2022/02/27 01:26:14;;;;;;;;;25.75;22.75;;;;;0.11;100.00;102606.00;3725499;37;20493;-56
2022/02/27 01:28:42;;;;;;;;;25.50;23.50;;;;;0.11;100.00;102606.00;3725597;37;20142;-57
2022/02/27 01:31:10;;;;;;;;;24.75;23.00;;;;;0.07;100.00;102599.06;3725157;38;20622;-57
2022/02/27 01:33:40;;;;;;;;;21.00;19.00;;;;;0.13;100.00;102612.97;3725519;37;20017;-57
2022/02/27 01:36:10;;;;;;;;;22.75;21.00;;;;;0.19;100.00;102609.19;3725596;38;20321;-58
2022/02/27 01:38:41;;;;;;;;;21.75;21.75;;;;;0.22;100.00;102617.91;3725279;37;20379;-58
2022/02/27 01:41:10;;;;;;;;;21.75;21.75;;;;;0.28;100.00;102617.66;3725221;38;20153;-58
2022/02/27 01:43:43;;;;;;;;;26.00;22.75;;;;;0.40;100.00;102613.59;3725464;37;20025;-56
2022/02/27 01:46:11;;;;;;;;;23.75;23.00;;;;;0.47;100.00;102612.38;3725142;38;20135;-58
2022/02/27 01:48:41;;;;;;;;;25.00;24.50;;;;;0.38;100.00;102615.44;3725511;37;19995;-58
2022/02/27 01:51:11;;;;;;;;;27.50;25.00;;;;;0.28;100.00;102611.47;3724947;37;20285;-58
2022/02/27 01:53:40;;;;;;;;;23.25;21.25;;;;;0.17;100.00;102616.37;3725642;38;20073;-58
2022/02/27 01:56:08;;;;;;;;;25.00;23.25;;;;;0.05;100.00;102609.78;3725418;37;20306;-57
2022/02/27 01:58:41;;;;;;;;;26.75;23.75;;;;;-0.17;100.00;102587.69;3725708;37;19986;-58
2022/02/27 02:01:10;;;;;;;;;25.00;23.00;;;;;0.03;100.00;102610.78;3725729;37;20187;-56
2022/02/27 02:03:39;;;;;;;;;25.50;24.50;;;;;-0.06;100.00;102612.94;3725779;38;20387;-57
2022/02/27 02:06:10;;;;;;;;;20.00;18.75;;;;;-0.07;100.00;102613.00;3725271;37;20342;-57
2022/02/27 02:08:38;;;;;;;;;35.25;31.00;;;;;0.01;100.00;102610.84;3725982;37;20040;-56
2022/02/27 02:11:12;;;;;;;;;30.25;25.50;;;;;-0.05;100.00;102611.12;3725816;38;20113;-59
2022/02/27 02:13:42;;;;;;;;;34.25;31.75;;;;;-0.12;100.00;102615.84;3725711;38;20041;-56
2022/02/27 02:16:11;;;;;;;;;31.00;28.50;;;;;-0.26;100.00;102596.06;3725723;38;20024;-56
2022/02/27 02:18:41;;;;;;;;;47.25;41.25;;;;;-0.32;100.00;102612.28;3725671;37;20255;-57
2022/02/27 02:21:11;;;;;;;;;56.00;42.25;;;;;-0.46;100.00;102608.38;3725723;38;20032;-58
2022/02/27 02:23:40;;;;;;;;;57.25;44.75;;;;;-0.65;100.00;102603.91;3725691;38;19998;-57
2022/02/27 02:26:12;;;;;;;;;58.00;47.00;;;;;-0.69;100.00;102605.81;3725289;37;20487;-57
2022/02/27 02:28:40;;;;;;;;;46.25;42.00;;;;;-0.82;100.00;102607.22;3725934;37;20030;-58
2022/02/27 02:31:09;;;;;;;;;44.50;38.75;;;;;-0.89;100.00;102601.28;3725607;37;20442;-56
2022/02/27 02:33:38;;;;;;;;;53.00;42.50;;;;;-0.97;100.00;102599.84;3725489;38;20463;-58
2022/02/27 02:36:07;;;;;;;;;39.25;36.50;;;;;-1.03;100.00;102599.16;3725805;38;20026;-58
2022/02/27 02:38:34;;;;;;;;;50.25;41.50;;;;;-1.15;100.00;102604.97;3725517;37;20264;-57
2022/02/27 02:41:03;;;;;;;;;48.50;42.25;;;;;-1.14;100.00;102609.34;3725131;37;20134;-57
2022/02/27 02:43:32;;;;;;;;;45.00;39.25;;;;;-1.22;100.00;102624.72;3725177;38;20373;-56
2022/02/27 02:46:01;;;;;;;;;47.00;40.00;;;;;-1.36;100.00;102608.41;3725456;37;20237;-56
2022/02/27 02:48:29;;;;;;;;;49.00;40.00;;;;;-1.45;100.00;102616.72;3725438;37;20297;-59
2022/02/27 02:51:23;;;;;;;;;60.50;44.25;;;;;-1.54;100.00;102617.91;3725322;38;20406;-56
2022/02/27 02:53:52;;;;;;;;;47.75;42.00;;;;;-1.56;100.00;102622.41;3725346;38;19978;-58
2022/02/27 02:56:21;;;;;;;;;52.00;41.50;;;;;-1.50;100.00;102618.69;3725454;38;20053;-57
2022/02/27 02:58:51;;;;;;;;;61.75;48.00;;;;;-1.52;100.00;102617.88;3725660;38;20207;-57
2022/02/27 03:01:25;;;;;;;;;59.50;45.50;;;;;-1.59;100.00;102613.72;3725428;37;20107;-57
2022/02/27 03:03:54;;;;;;;;;51.75;44.50;;;;;-1.57;100.00;102612.75;3725223;37;20291;-57
2022/02/27 03:06:27;;;;;;;;;52.25;41.75;;;;;-1.53;100.00;102622.31;3725627;38;20219;-57
2022/02/27 03:09:04;;;;;;;;;54.25;42.25;;;;;-1.52;100.00;102629.34;3725091;37;19958;-58
2022/02/27 03:11:33;;;;;;;;;57.00;46.25;;;;;-1.62;100.00;102624.47;3725121;38;20343;-57
2022/02/27 03:14:01;;;;;;;;;54.75;43.00;;;;;-1.69;100.00;102629.97;3725392;38;20083;-58
2022/02/27 03:16:32;;;;;;;;;51.25;44.25;;;;;-1.88;100.00;102623.56;3725436;37;19956;-57
2022/02/27 03:18:59;;;;;;;;;55.00;44.75;;;;;-1.83;100.00;102626.94;3725227;38;20050;-57
2022/02/27 03:21:28;;;;;;;;;47.50;42.00;;;;;-1.85;100.00;102630.56;3725059;38;20217;-58
2022/02/27 03:23:56;;;;;;;;;57.25;47.50;;;;;-1.79;100.00;102623.25;3725253;37;20374;-57
2022/02/27 03:26:24;;;;;;;;;58.25;48.75;;;;;-1.82;100.00;102636.63;3725547;37;20066;-59
2022/02/27 03:28:56;;;;;;;;;62.75;49.25;;;;;-1.79;100.00;102628.56;3725126;37;20317;-60
2022/02/27 03:31:28;;;;;;;;;56.25;43.25;;;;;-1.80;100.00;102631.28;3725560;38;19916;-56
2022/02/27 03:33:58;;;;;;;;;53.25;45.50;;;;;-1.93;100.00;102625.53;3725500;38;20003;-57
2022/02/27 03:36:29;;;;;;;;;59.75;47.75;;;;;-1.97;100.00;102634.50;3725518;38;20216;-60
2022/02/27 03:38:59;;;;;;;;;58.00;48.50;;;;;-1.98;100.00;102626.59;3725624;37;19942;-57
2022/02/27 03:41:29;;;;;;;;;59.25;50.75;;;;;-1.98;100.00;102627.47;3725269;38;20282;-58
2022/02/27 03:43:58;;;;;;;;;55.25;46.75;;;;;-2.03;100.00;102629.41;3725522;38;20350;-58
2022/02/27 03:46:25;;;;;;;;;58.50;48.25;;;;;-2.05;100.00;102633.91;3725558;38;19946;-58
2022/02/27 03:48:58;;;;;;;;;51.00;40.00;;;;;-2.08;100.00;102629.56;3725203;37;19882;-59
2022/02/27 03:51:26;;;;;;;;;57.50;46.75;;;;;-2.14;100.00;102623.63;3725073;38;19924;-58
2022/02/27 03:53:54;;;;;;;;;46.75;39.25;;;;;-2.10;100.00;102627.91;3725283;37;20025;-58
2022/02/27 03:56:25;;;;;;;;;57.50;46.50;;;;;-2.15;100.00;102612.16;3725653;38;19906;-56
2022/02/27 03:58:52;;;;;;;;;51.00;44.00;;;;;-2.17;100.00;102624.59;3725671;37;20280;-57
2022/02/27 04:01:22;;;;;;;;;55.50;44.50;;;;;-2.17;100.00;102621.94;3725619;38;19904;-57
2022/02/27 04:03:52;;;;;;;;;55.25;44.50;;;;;-2.20;100.00;102622.03;3725400;37;20206;-56
2022/02/27 04:06:22;;;;;;;;;51.00;42.25;;;;;-2.08;100.00;102626.06;3725199;37;20316;-56
2022/02/27 04:08:49;;;;;;;;;50.00;43.25;;;;;-2.01;100.00;102625.78;3725743;37;20293;-59
2022/02/27 04:11:17;;;;;;;;;52.25;44.25;;;;;-1.89;100.00;102626.28;3725650;37;20326;-57
2022/02/27 04:13:45;;;;;;;;;56.00;48.00;;;;;-1.99;100.00;102623.06;3725192;38;20225;-58
2022/02/27 04:16:15;;;;;;;;;52.25;46.50;;;;;-2.15;100.00;102624.53;3725539;38;19868;-58
2022/02/27 04:18:42;;;;;;;;;55.00;45.00;;;;;-2.21;100.00;102622.09;3725510;37;20038;-57
2022/02/27 04:21:09;;;;;;;;;50.50;42.50;;;;;-2.23;100.00;102626.59;3725559;37;19860;-58
2022/02/27 04:23:37;;;;;;;;;51.00;41.75;;;;;-2.18;100.00;102627.31;3725493;38;19869;-59
2022/02/27 04:26:04;;;;;;;;;58.75;44.50;;;;;-2.12;100.00;102619.13;3725502;38;20244;-57
2022/02/27 04:28:36;;;;;;;;;46.00;41.50;;;;;-2.18;100.00;102619.34;3725157;37;19943;-57
2022/02/27 04:31:03;;;;;;;;;38.75;37.50;;;;;-2.10;100.00;102617.31;3725621;38;19860;-58
2022/02/27 04:33:31;;;;;;;;;59.00;46.50;;;;;-2.09;100.00;102614.59;3725487;37;19836;-57
2022/02/27 04:35:59;;;;;;;;;66.00;51.25;;;;;-2.11;100.00;102615.56;3725428;37;19959;-58
2022/02/27 04:38:29;;;;;;;;;58.50;48.25;;;;;-2.22;100.00;102621.22;3725199;38;20107;-56
2022/02/27 04:40:58;;;;;;;;;64.00;53.75;;;;;-2.31;100.00;102625.97;3725597;37;19971;-58
2022/02/27 04:43:28;;;;;;;;;63.00;51.25;;;;;-2.42;100.00;102619.22;3725329;38;20124;-60
2022/02/27 04:46:00;;;;;;;;;64.50;49.25;;;;;-2.33;100.00;102610.09;3725352;37;19952;-57
2022/02/27 04:48:29;;;;;;;;;63.25;51.00;;;;;-2.16;100.00;102613.06;3725606;37;19817;-59
2022/02/27 04:50:56;;;;;;;;;65.50;49.00;;;;;-2.15;100.00;102619.25;3725539;38;19817;-59
2022/02/27 04:53:24;;;;;;;;;67.75;53.75;;;;;-2.12;100.00;102617.34;3725523;37;19843;-57
2022/02/27 04:55:55;;;;;;;;;58.00;48.00;;;;;-2.14;100.00;102623.63;3725608;37;20178;-56
2022/02/27 04:58:24;;;;;;;;;61.50;50.00;;;;;-2.21;100.00;102625.63;3725246;38;20099;-57
2022/02/27 05:00:51;;;;;;;;;49.00;41.25;;;;;-2.31;100.00;102628.62;3725550;37;20253;-58
2022/02/27 05:03:20;;;;;;;;;46.75;39.25;;;;;-2.46;100.00;102628.19;3725572;37;19936;-56
2022/02/27 05:05:47;;;;;;;;;48.25;42.25;;;;;-2.33;100.00;102642.78;3725306;38;20137;-57
2022/02/27 05:08:15;;;;;;;;;56.50;44.50;;;;;-2.26;100.00;102639.94;3726032;37;19875;-58
2022/02/27 05:10:44;;;;;;;;;50.75;45.50;;;;;-2.20;100.00;102642.41;3725747;37;19958;-57
2022/02/27 05:13:19;;;;;;;;;56.50;45.25;;;;;-2.16;100.00;102636.06;3725601;37;19888;-56
2022/02/27 05:15:49;;;;;;;;;52.00;41.75;;;;;-2.03;100.00;102629.41;3725701;37;19894;-56
2022/02/27 05:18:18;;;;;;;;;60.75;46.00;;;;;-1.94;100.00;102639.72;3725195;37;19854;-57
2022/02/27 05:20:47;;;;;;;;;48.00;39.25;;;;;-1.96;100.00;102646.84;3725402;37;19916;-57
2022/02/27 05:23:14;;;;;;;;;42.75;38.25;;;;;-2.02;100.00;102634.66;3725291;37;19885;-59
2022/02/27 05:25:45;;;;;;;;;40.75;37.75;;;;;-1.93;100.00;102646.75;3725377;38;19949;-57
2022/02/27 05:28:16;;;;;;;;;48.25;40.00;;;;;-1.82;100.00;102649.03;3725464;38;19795;-57
2022/02/27 05:30:45;;;;;;;;;50.50;41.75;;;;;-1.76;100.00;102647.03;3725578;38;20153;-56
2022/02/27 05:33:36;;;;;;;;;54.50;45.00;;;;;-1.70;100.00;102656.59;3725382;38;20154;-59
2022/02/27 05:36:07;;;;;;;;;43.50;38.50;;;;;-1.77;100.00;102640.00;3725487;37;19750;-56
2022/02/27 05:38:36;;;;;;;;;46.75;41.50;;;;;-1.75;100.00;102656.75;3725737;37;19871;-62
2022/02/27 05:41:06;;;;;;;;;49.00;40.75;;;;;-1.78;100.00;102656.84;3725390;38;19865;-56
2022/02/27 05:43:33;;;;;;;;;48.75;41.75;;;;;-1.73;100.00;102646.94;3725610;38;20105;-57
2022/02/27 05:46:09;;;;;;;;;39.00;36.75;;;;;-1.70;100.00;102654.78;3725379;38;19848;-56
2022/02/27 05:48:37;;;;;;;;;41.25;38.75;;;;;-1.56;100.00;102659.59;3725489;38;20191;-56
2022/02/27 05:51:04;;;;;;;;;47.50;40.75;;;;;-1.46;100.00;102661.00;3725676;37;20085;-58
2022/02/27 05:53:32;;;;;;;;;45.25;40.50;;;;;-1.43;100.00;102663.53;3725396;37;20124;-58
2022/02/27 05:56:00;;;;;;;;;46.75;40.50;;;;;-1.31;100.00;102650.75;3725459;38;19742;-55
2022/02/27 05:58:30;;;;;;;;;39.25;37.00;;;;;-1.17;100.00;102672.38;3725630;38;19745;-57
2022/02/27 06:01:00;;;;;;;;;59.75;44.00;;;;;-1.16;100.00;102668.78;3725860;38;20182;-56
2022/02/27 06:03:29;;;;;;;;;55.50;43.25;;;;;-1.13;100.00;102669.53;3725981;37;20193;-59
2022/02/27 06:05:56;;;;;;;;;54.75;41.50;;;;;-1.18;100.00;102660.87;3725202;38;20053;-56
2022/02/27 06:08:24;;;;;;;;;65.00;48.25;;;;;-1.07;100.00;102666.66;3725998;38;19858;-59
2022/02/27 06:10:52;;;;;;;;;54.50;46.00;;;;;-0.89;100.00;102656.22;3725823;38;19973;-57
2022/02/27 06:13:28;;;;;;;;;63.00;49.00;;;;;-0.80;100.00;102658.53;3725645;38;20721;-58
2022/02/27 06:15:56;;;;;;;;;56.25;43.50;;;;;-0.70;100.00;102654.59;3725739;38;20768;-57
2022/02/27 06:18:24;;;;;;;;;48.00;39.75;;;;;-0.64;100.00;102659.69;3725544;37;21169;-56
2022/02/27 06:20:52;;;;;;;;;39.00;37.75;;;;;-0.57;100.00;102662.97;3725560;37;21142;-56
2022/02/27 06:23:19;;;;;;;;;61.00;49.25;;;;;-0.50;100.00;102656.44;3725481;38;20812;-56
2022/02/27 06:25:47;;;;;;;;;59.75;47.75;;;;;-0.41;100.00;102653.41;3725656;37;21115;-57
2022/02/27 06:28:15;;;;;;;;;58.00;46.50;;;;;-0.30;100.00;102659.19;3725489;38;20698;-58
2022/02/27 06:30:47;;;;;;;;;46.50;41.50;;;;;-0.17;100.00;102667.53;3725861;38;20758;-57
2022/02/27 06:33:14;;;;;;;;;57.00;46.75;;;;;-0.14;100.00;102659.41;3725422;37;21056;-55
2022/02/27 06:35:43;;;;;;;;;61.75;50.00;;;;;0.03;100.00;102672.88;3725196;38;21035;-57
2022/02/27 06:38:11;;;;;;;;;61.75;49.00;;;;;0.12;100.00;102666.28;3725702;38;20895;-57
2022/02/27 06:40:38;;;;;;;;;58.50;47.75;;;;;0.35;100.00;102671.50;3725695;38;20715;-58
2022/02/27 06:43:08;;;;;;;;;61.25;49.00;;;;;0.46;100.00;102665.72;3725591;37;21037;-58
2022/02/27 06:45:37;;;;;;;;;58.75;47.50;;;;;0.59;100.00;102670.41;3725667;38;20660;-58
2022/02/27 06:48:05;;;;;;;;;32.50;29.00;;;;;0.60;100.00;102672.16;3725583;37;20770;-58
2022/02/27 06:50:35;;;;;;;;;47.00;41.75;;;;;0.66;100.00;102679.00;3725740;37;20690;-63
2022/02/27 06:53:05;;;;;;;;;47.00;39.00;;;;;0.78;100.00;102674.94;3725431;37;21009;-62
2022/02/27 06:55:34;;;;;;;;;41.75;36.00;;;;;0.89;100.00;102678.84;3725818;38;21027;-62
2022/02/27 06:58:02;;;;;;;;;44.50;39.00;;;;;0.98;100.00;102675.78;3725755;37;21001;-63
2022/02/27 07:00:30;;;;;;;;;47.00;40.50;;;;;1.18;100.00;102672.16;3725797;37;21090;-62
2022/02/27 07:03:01;;;;;;;;;39.00;32.50;;;;;1.28;100.00;102662.78;3725909;37;20708;-61
2022/02/27 07:05:29;;;;;;;;;35.25;34.00;;;;;1.33;100.00;102666.12;3725581;37;20618;-61
2022/02/27 07:07:58;;;;;;;;;28.00;27.00;;;;;1.44;100.00;102668.28;3725204;38;20658;-62
2022/02/27 07:10:27;;;;;;;;;29.00;27.75;;;;;1.71;100.00;102663.38;3725163;37;20702;-64
2022/02/27 07:12:56;;;;;;;;;28.00;26.50;;;;;1.83;100.00;102665.47;3724952;38;21020;-62
2022/02/27 07:15:24;;;;;;;;;28.50;26.75;;;;;1.90;100.00;102658.88;3724926;38;20888;-64
2022/02/27 07:17:54;;;;;;;;;30.25;30.00;;;;;1.88;100.00;102662.56;3725235;37;20932;-63
2022/02/27 07:20:22;;;;;;;;;28.25;27.50;;;;;1.82;100.00;102647.72;3725340;37;20761;-60
2022/02/27 07:22:51;;;;;;;;;29.00;27.75;;;;;1.74;100.00;102667.72;3725094;37;20575;-62
2022/02/27 07:25:23;;;;;;;;;23.75;23.25;;;;;1.60;100.00;102669.25;3725801;38;21083;-63
2022/02/27 07:27:51;;;;;;;;;29.50;26.50;;;;;1.77;100.00;102670.22;3726021;38;20636;-61
2022/02/27 07:30:19;;;;;;;;;28.00;25.75;;;;;1.77;100.00;102670.22;3726078;37;20646;-64
2022/02/27 07:32:48;;;;;;;;;28.00;26.25;;;;;2.05;100.00;102681.28;3726101;38;20923;-63
2022/02/27 07:35:23;;;;;;;;;23.00;21.75;;;;;2.32;100.00;102684.34;3725962;37;20645;-61
2022/02/27 07:37:50;;;;;;;;;24.00;22.50;;;;;2.17;100.00;102677.97;3726756;37;20556;-61
2022/02/27 07:40:18;;;;;;;;;34.25;31.00;;;;;2.22;100.00;102683.94;3726816;37;20645;-61
2022/02/27 07:42:48;;;;;;;;;26.50;24.00;;;;;2.40;100.00;102674.13;3726569;38;20850;-61
2022/02/27 07:45:18;;;;;;;;;29.50;26.75;;;;;2.72;100.00;102680.44;3725922;37;20686;-60
2022/02/27 07:47:45;;;;;;;;;34.25;30.50;;;;;2.99;100.00;102681.66;3725475;37;20787;-64
2022/02/27 07:50:13;;;;;;;;;31.00;30.25;;;;;3.16;100.00;102691.41;3725656;38;20552;-60
2022/02/27 07:52:40;;;;;;;;;30.50;29.50;;;;;3.08;100.00;102682.09;3725901;38;20542;-61
2022/02/27 07:55:11;;;;;;;;;37.75;35.00;;;;;2.68;100.00;102686.91;3725345;37;20784;-61
2022/02/27 07:57:42;;;;;;;;;35.75;33.00;;;;;2.60;100.00;102687.31;3725792;37;20570;-61
2022/02/27 08:00:10;;;;;;;;;36.50;34.75;;;;;2.79;100.00;102691.69;3725918;37;20716;-62
2022/02/27 08:02:41;;;;;;;;;25.75;24.25;;;;;2.92;100.00;102690.97;3725775;37;20791;-61
2022/02/27 08:05:10;;;;;;;;;32.75;29.25;;;;;2.77;100.00;102698.91;3725273;37;20913;-60
2022/02/27 08:07:40;;;;;;;;;32.50;31.00;;;;;2.80;100.00;102690.75;3725249;38;21004;-62
2022/02/27 08:10:10;;;;;;;;;31.50;28.75;;;;;2.97;100.00;102680.00;3724129;38;20781;-59
2022/02/27 08:12:45;;;;;;;;;31.50;30.25;;;;;3.09;100.00;102682.03;3724558;37;20937;-62
2022/02/27 08:15:16;;;;;;;;;28.50;25.75;;;;;3.01;100.00;102694.09;3725246;37;20908;-62
2022/02/27 08:17:47;;;;;;;;;32.25;28.25;;;;;3.10;100.00;102686.44;3724915;37;20509;-60
2022/02/27 08:20:14;;;;;;;;;31.75;30.75;;;;;3.21;100.00;102675.13;3725262;37;20641;-61
2022/02/27 08:22:43;;;;;;;;;29.50;25.75;;;;;3.25;100.00;102676.69;3725679;38;20886;-59
2022/02/27 08:25:12;;;;;;;;;43.25;36.50;;;;;3.01;100.00;102632.56;3725509;37;20770;-63
2022/02/27 08:27:43;;;;;;;;;33.25;30.50;;;;;3.25;100.00;102674.00;3724956;38;20668;-59
2022/02/27 08:30:13;;;;;;;;;26.75;24.75;;;;;3.41;100.00;102676.69;3725026;38;20580;-58
2022/02/27 08:32:42;;;;;;;;;29.25;28.00;;;;;3.68;100.00;102680.47;3724632;37;20919;-60
2022/02/27 08:35:11;;;;;;;;;25.25;23.75;;;;;3.81;100.00;102669.94;3724722;37;20605;-63
2022/02/27 08:37:38;;;;;;;;;29.50;26.50;;;;;3.80;100.00;102677.09;3725306;38;20907;-60
2022/02/27 08:40:07;;;;;;;;;29.25;25.25;;;;;3.97;100.00;102668.09;3725430;37;20867;-61
2022/02/27 08:43:00;;;;;;;;;33.75;32.00;;;;;3.98;100.00;102659.09;3725460;38;20462;-60
2022/02/27 08:45:33;;;;;;;;;29.50;26.00;;;;;3.91;100.00;102660.41;3725073;38;20868;-62
2022/02/27 08:48:03;;;;;;;;;30.00;27.50;;;;;3.95;100.00;102665.50;3725185;37;20459;-59
2022/02/27 08:50:30;;;;;;;;;26.50;25.25;;;;;4.11;100.00;102662.78;3725752;37;20579;-61
2022/02/27 08:53:00;;;;;;;;;20.50;19.50;;;;;4.18;100.00;102663.28;3725432;37;20557;-63
2022/02/27 08:55:29;;;;;;;;;26.75;25.75;;;;;4.41;100.00;102660.09;3725373;37;20467;-60
2022/02/27 08:57:59;;;;;;;;;23.00;21.75;;;;;4.56;100.00;102664.53;3725642;38;20604;-59
2022/02/27 09:00:27;;;;;;;;;31.25;27.25;;;;;4.46;100.00;102641.91;3725576;38;20691;-61
2022/02/27 09:02:55;;;;;;;;;25.50;24.00;;;;;4.57;100.00;102651.97;3725876;37;20853;-62
2022/02/27 09:05:24;;;;;;;;;24.00;21.00;;;;;4.90;100.00;102662.44;3726008;37;20552;-63
2022/02/27 09:07:51;;;;;;;;;27.25;26.50;;;;;4.72;100.00;102658.19;3725849;38;20427;-60
2022/02/27 09:10:21;;;;;;;;;24.00;23.00;;;;;5.04;100.00;102645.47;3725900;38;20546;-61
2022/02/27 09:12:53;;;;;;;;;26.00;24.50;;;;;5.24;100.00;102648.59;3725455;37;20579;-65
2022/02/27 09:15:21;;;;;;;;;25.25;24.50;;;;;5.24;100.00;102645.91;3726043;38;20887;-61
2022/02/27 09:17:55;;;;;;;;;26.75;24.25;;;;;5.43;100.00;102647.41;3725758;37;20865;-62
2022/02/27 09:20:26;;;;;;;;;25.00;24.25;;;;;5.56;100.00;102635.78;3725924;37;20712;-59
2022/02/27 09:22:56;;;;;;;;;27.25;26.75;;;;;5.54;100.00;102636.84;3725497;37;20691;-61
2022/02/27 09:25:28;;;;;;;;;22.00;22.00;;;;;5.59;100.00;102640.09;3725327;38;20533;-61
2022/02/27 09:27:57;;;;;;;;;25.25;24.25;;;;;5.86;100.00;102626.63;3725502;38;20690;-60
2022/02/27 09:30:31;;;;;;;;;22.75;22.75;;;;;6.15;100.00;102630.94;3725832;38;20733;-62
2022/02/27 09:32:59;;;;;;;;;23.75;22.00;;;;;6.36;100.00;102625.03;3725612;38;20537;-63
2022/02/27 09:35:28;;;;;;;;;23.00;23.00;;;;;6.29;97.25;102625.47;3725804;38;20409;-61
2022/02/27 09:37:57;;;;;;;;;24.25;22.25;;;;;6.44;97.98;102620.88;3725794;38;20434;-61
2022/02/27 09:40:33;;;;;;;;;21.75;20.75;;;;;6.16;95.16;102619.22;3725783;37;20382;-61
2022/02/27 09:43:01;;;;;;;;;22.25;19.75;;;;;6.07;94.47;102609.09;3725712;38;20837;-62
2022/02/27 09:45:31;;;;;;;;;16.00;15.50;;;;;6.19;95.27;102602.03;3725761;38;20757;-60
2022/02/27 09:48:09;;;;;;;;;19.00;18.25;;;;;6.51;93.54;102607.84;3725784;37;20817;-61
2022/02/27 09:50:40;;;;;;;;;24.75;21.75;;;;;6.46;91.01;102597.41;3725430;37;20504;-63
2022/02/27 09:53:19;;;;;;;;;20.75;19.50;;;;;6.53;89.79;102589.78;3725794;37;20742;-60
2022/02/27 09:55:50;;;;;;;;;18.50;17.75;;;;;6.43;88.65;102599.44;3725584;38;20776;-59
2022/02/27 09:58:24;;;;;;;;;17.25;17.00;;;;;6.55;89.43;102590.53;3725586;37;20401;-59
2022/02/27 10:00:51;;;;;;;;;14.25;12.50;;;;;6.62;89.41;102570.28;3725313;37;20685;-60
2022/02/27 10:03:27;;;;;;;;;18.75;18.50;;;;;6.72;87.15;102592.91;3725561;38;20585;-58
2022/02/27 10:06:08;;;;;;;;;15.75;14.75;;;;;6.51;86.88;102583.63;3725357;37;20795;-58
2022/02/27 10:08:44;;;;;;;;;19.00;17.00;;;;;6.53;88.41;102563.72;3725769;38;20588;-58
2022/02/27 10:11:22;;;;;;;;;19.00;17.00;;;;;6.68;86.96;102583.31;3725812;37;20503;-61
2022/02/27 10:13:55;;;;;;;;;19.75;18.25;;;;;6.75;85.76;102573.84;3727181;38;20349;-61
2022/02/27 10:16:30;;;;;;;;;19.25;18.75;;;;;7.02;86.70;102567.41;3726192;37;20343;-59
2022/02/27 10:19:00;;;;;;;;;24.25;19.25;;;;;6.89;83.61;102570.13;3725633;37;20645;-60
2022/02/27 10:21:47;;;;;;;;;16.00;16.00;;;;;6.70;84.94;102564.38;3725793;37;20485;-59
2022/02/27 10:24:16;;;;;;;;;18.50;16.00;;;;;6.68;87.17;102559.09;3724774;37;20314;-59
2022/02/27 10:26:47;;;;;;;;;23.75;21.25;;;;;6.88;87.22;102531.59;3725235;37;20602;-59
2022/02/27 10:29:35;;;;;;;;;19.50;19.25;;;;;7.11;84.42;102542.53;3725696;37;20338;-60
2022/02/27 10:32:05;;;;;;;;;24.25;24.00;;;;;7.07;84.20;102533.81;3725373;37;20585;-61
2022/02/27 10:34:37;;;;;;;;;25.00;24.25;;;;;6.97;83.83;102536.31;3724909;37;20500;-60
2022/02/27 10:37:15;;;;;;;;;21.00;20.25;;;;;7.01;83.62;102530.69;3725251;38;20781;-59
2022/02/27 10:39:46;;;;;;;;;13.25;12.25;;;;;7.10;73.95;102533.59;3725447;38;20593;-61
2022/02/27 10:42:20;;;;;;;;;13.75;13.00;;;;;7.11;73.14;102520.97;3725473;37;20416;-61
2022/02/27 10:45:01;;;;;;;;;12.75;12.75;;;;;7.40;72.29;102519.66;3725426;37;20722;-58
2022/02/27 10:47:34;;;;;;;;;9.00;9.00;;;;;7.63;67.24;102518.78;3725293;38;20293;-60
2022/02/27 10:50:16;;;;;;;;;11.25;10.50;;;;;7.44;66.13;102507.66;3725319;37;21076;-57
2022/02/27 10:52:46;;;;;;;;;9.25;9.25;;;;;7.60;67.07;102523.53;3725267;37;20391;-59
2022/02/27 10:55:16;;;;;;;;;11.50;11.00;;;;;7.89;67.66;102511.37;3724892;38;20407;-61
2022/02/27 10:57:50;;;;;;;;;7.75;7.00;;;;;8.03;63.90;102507.59;3725082;37;20572;-59
2022/02/27 11:00:29;;;;;;;;;9.00;6.00;;;;;8.01;58.87;102501.47;3725030;37;20243;-57
2022/02/27 11:03:11;;;;;;;;;11.00;8.75;;;;;8.37;58.93;102507.66;3724667;37;20558;-54
2022/02/27 11:05:41;;;;;;;;;8.75;7.00;;;;;8.48;50.88;102489.66;3725444;38;20451;-57
2022/02/27 11:08:14;;;;;;;;;7.50;7.00;;;;;8.52;49.82;102483.03;3725351;37;20236;-62
2022/02/27 11:10:47;;;;;;;;;7.00;7.00;;;;;8.28;47.17;102482.28;3725159;38;20191;-60
2022/02/27 11:13:17;;;;;;;;;10.50;10.25;;;;;8.25;48.40;102483.38;3724901;37;20458;-61
2022/02/27 11:15:45;;;;;;;;;7.50;7.00;;;;;8.28;44.76;102493.06;3725550;38;20308;-63
2022/02/27 11:18:13;;;;;;;;;7.75;7.00;;;;;7.94;44.46;102487.59;3725518;38;20597;-62
2022/02/27 11:20:41;;;;;;;;;9.25;8.00;;;;;7.67;45.28;102470.03;3724892;38;20208;-60